sensor_id;sensor_type;location;lat;lon;timestamp;P1;durP1;ratioP1;P2;durP2;ratioP2
7080;SDS011;3582;51.506;11.948;2024-01-15T00:00:23;19.85;;;12.52;;
7080;SDS011;3582;51.506;11.948;2024-01-15T00:02:49;18.63;;;12.77;;
7080;SDS011;3582;51.506;11.948;2024-01-15T00:05:14;19.83;;;12.93;;
7080;SDS011;3582;51.506;11.948;2024-01-15T00:07:40;17.20;;;13.27;;
7080;SDS011;3582;51.506;11.948;2024-01-15T00:10:06;18.03;;;12.00;;
7080;SDS011;3582;51.506;11.948;2024-01-15T00:12:32;18.77;;;12.75;;
7080;SDS011;3582;51.506;11.948;2024-01-15T00:14:58;17.45;;;11.20;;
7080;SDS011;3582;51.506;11.948;2024-01-15T00:17:24;17.80;;;12.40;;
7080;SDS011;3582;51.506;11.948;2024-01-15T00:19:50;23.73;;;14.23;;
7080;SDS011;3582;51.506;11.948;2024-01-15T00:22:16;16.60;;;12.27;;
7080;SDS011;3582;51.506;11.948;2024-01-15T00:24:42;17.15;;;12.38;;
7080;SDS011;3582;51.506;11.948;2024-01-15T00:27:08;19.60;;;13.00;;
7080;SDS011;3582;51.506;11.948;2024-01-15T00:29:34;18.80;;;12.53;;
7080;SDS011;3582;51.506;11.948;2024-01-15T00:32:00;23.93;;;14.67;;
7080;SDS011;3582;51.506;11.948;2024-01-15T00:34:26;20.27;;;12.10;;
7080;SDS011;3582;51.506;11.948;2024-01-15T00:36:52;18.90;;;12.53;;
7080;SDS011;3582;51.506;11.948;2024-01-15T00:39:18;21.10;;;13.73;;
7080;SDS011;3582;51.506;11.948;2024-01-15T00:41:44;26.57;;;13.10;;
7080;SDS011;3582;51.506;11.948;2024-01-15T00:44:10;21.60;;;15.23;;
7080;SDS011;3582;51.506;11.948;2024-01-15T00:46:45;20.27;;;12.30;;
7080;SDS011;3582;51.506;11.948;2024-01-15T00:49:11;19.42;;;13.38;;
7080;SDS011;3582;51.506;11.948;2024-01-15T00:51:38;21.45;;;13.32;;
7080;SDS011;3582;51.506;11.948;2024-01-15T00:54:04;22.03;;;14.83;;
7080;SDS011;3582;51.506;11.948;2024-01-15T00:56:30;21.63;;;14.65;;
7080;SDS011;3582;51.506;11.948;2024-01-15T00:58:55;21.50;;;14.80;;
7080;SDS011;3582;51.506;11.948;2024-01-15T01:01:21;20.17;;;14.70;;
7080;SDS011;3582;51.506;11.948;2024-01-15T01:03:47;20.23;;;13.03;;
7080;SDS011;3582;51.506;11.948;2024-01-15T01:06:13;23.23;;;14.00;;
7080;SDS011;3582;51.506;11.948;2024-01-15T01:08:39;24.77;;;15.03;;
7080;SDS011;3582;51.506;11.948;2024-01-15T01:11:05;21.40;;;14.50;;
7080;SDS011;3582;51.506;11.948;2024-01-15T01:13:32;22.45;;;13.30;;
7080;SDS011;3582;51.506;11.948;2024-01-15T01:15:58;21.95;;;16.13;;
7080;SDS011;3582;51.506;11.948;2024-01-15T01:18:24;20.58;;;14.93;;
7080;SDS011;3582;51.506;11.948;2024-01-15T01:20:50;20.73;;;13.48;;
7080;SDS011;3582;51.506;11.948;2024-01-15T01:23:16;18.77;;;13.57;;
7080;SDS011;3582;51.506;11.948;2024-01-15T01:25:42;27.42;;;15.75;;
7080;SDS011;3582;51.506;11.948;2024-01-15T01:28:08;26.40;;;14.10;;
7080;SDS011;3582;51.506;11.948;2024-01-15T01:30:34;23.50;;;14.32;;
7080;SDS011;3582;51.506;11.948;2024-01-15T01:33:00;22.23;;;13.90;;
7080;SDS011;3582;51.506;11.948;2024-01-15T01:35:26;28.60;;;16.73;;
7080;SDS011;3582;51.506;11.948;2024-01-15T01:37:52;18.50;;;14.23;;
7080;SDS011;3582;51.506;11.948;2024-01-15T01:40:18;23.37;;;14.03;;
7080;SDS011;3582;51.506;11.948;2024-01-15T01:42:43;21.30;;;14.63;;
7080;SDS011;3582;51.506;11.948;2024-01-15T01:45:10;27.00;;;17.17;;
7080;SDS011;3582;51.506;11.948;2024-01-15T01:47:36;24.70;;;14.32;;
7080;SDS011;3582;51.506;11.948;2024-01-15T01:50:02;25.00;;;14.55;;
7080;SDS011;3582;51.506;11.948;2024-01-15T01:52:28;21.33;;;13.25;;
7080;SDS011;3582;51.506;11.948;2024-01-15T01:54:54;21.27;;;13.50;;
7080;SDS011;3582;51.506;11.948;2024-01-15T01:57:21;22.58;;;14.00;;
7080;SDS011;3582;51.506;11.948;2024-01-15T01:59:47;23.13;;;13.40;;
7080;SDS011;3582;51.506;11.948;2024-01-15T02:02:13;19.00;;;12.65;;
7080;SDS011;3582;51.506;11.948;2024-01-15T02:04:39;21.87;;;14.57;;
7080;SDS011;3582;51.506;11.948;2024-01-15T02:07:05;24.67;;;14.97;;
7080;SDS011;3582;51.506;11.948;2024-01-15T02:09:31;19.13;;;13.70;;
7080;SDS011;3582;51.506;11.948;2024-01-15T02:11:57;18.83;;;14.05;;
7080;SDS011;3582;51.506;11.948;2024-01-15T02:14:23;19.40;;;12.53;;
7080;SDS011;3582;51.506;11.948;2024-01-15T02:16:49;22.08;;;13.13;;
7080;SDS011;3582;51.506;11.948;2024-01-15T02:19:15;23.20;;;13.70;;
7080;SDS011;3582;51.506;11.948;2024-01-15T02:21:42;19.45;;;13.60;;
7080;SDS011;3582;51.506;11.948;2024-01-15T02:24:08;21.20;;;14.53;;
7080;SDS011;3582;51.506;11.948;2024-01-15T02:26:33;23.37;;;16.67;;
7080;SDS011;3582;51.506;11.948;2024-01-15T02:29:01;20.77;;;13.80;;
7080;SDS011;3582;51.506;11.948;2024-01-15T02:31:27;17.30;;;12.38;;
7080;SDS011;3582;51.506;11.948;2024-01-15T02:33:53;19.33;;;12.75;;
7080;SDS011;3582;51.506;11.948;2024-01-15T02:36:19;18.13;;;11.93;;
7080;SDS011;3582;51.506;11.948;2024-01-15T02:38:45;21.60;;;13.23;;
7080;SDS011;3582;51.506;11.948;2024-01-15T02:41:11;22.90;;;13.03;;
7080;SDS011;3582;51.506;11.948;2024-01-15T02:43:39;23.60;;;14.68;;
7080;SDS011;3582;51.506;11.948;2024-01-15T02:46:05;17.42;;;11.50;;
7080;SDS011;3582;51.506;11.948;2024-01-15T02:48:31;23.90;;;12.82;;
7080;SDS011;3582;51.506;11.948;2024-01-15T02:50:59;19.02;;;11.95;;
7080;SDS011;3582;51.506;11.948;2024-01-15T02:53:25;20.10;;;13.40;;
7080;SDS011;3582;51.506;11.948;2024-01-15T02:55:52;22.38;;;14.00;;
7080;SDS011;3582;51.506;11.948;2024-01-15T02:58:18;24.73;;;13.87;;
7080;SDS011;3582;51.506;11.948;2024-01-15T03:00:44;20.03;;;12.17;;
7080;SDS011;3582;51.506;11.948;2024-01-15T03:03:11;21.90;;;12.05;;
7080;SDS011;3582;51.506;11.948;2024-01-15T03:05:37;26.17;;;13.32;;
7080;SDS011;3582;51.506;11.948;2024-01-15T03:08:03;21.53;;;13.37;;
7080;SDS011;3582;51.506;11.948;2024-01-15T03:10:29;25.20;;;13.93;;
7080;SDS011;3582;51.506;11.948;2024-01-15T03:12:55;28.73;;;12.70;;
7080;SDS011;3582;51.506;11.948;2024-01-15T03:15:21;18.85;;;13.05;;
7080;SDS011;3582;51.506;11.948;2024-01-15T03:17:47;24.73;;;12.10;;
7080;SDS011;3582;51.506;11.948;2024-01-15T03:20:13;16.53;;;11.93;;
7080;SDS011;3582;51.506;11.948;2024-01-15T03:22:39;26.55;;;14.57;;
7080;SDS011;3582;51.506;11.948;2024-01-15T03:25:06;19.60;;;12.55;;
7080;SDS011;3582;51.506;11.948;2024-01-15T03:27:32;21.90;;;12.15;;
7080;SDS011;3582;51.506;11.948;2024-01-15T03:29:58;24.92;;;14.38;;
7080;SDS011;3582;51.506;11.948;2024-01-15T03:32:24;21.90;;;13.23;;
7080;SDS011;3582;51.506;11.948;2024-01-15T03:34:50;21.80;;;12.70;;
7080;SDS011;3582;51.506;11.948;2024-01-15T03:37:17;17.02;;;12.13;;
7080;SDS011;3582;51.506;11.948;2024-01-15T03:39:43;17.20;;;12.35;;
7080;SDS011;3582;51.506;11.948;2024-01-15T03:42:09;25.85;;;14.98;;
7080;SDS011;3582;51.506;11.948;2024-01-15T03:44:35;24.37;;;15.10;;
7080;SDS011;3582;51.506;11.948;2024-01-15T03:47:01;22.50;;;10.83;;
7080;SDS011;3582;51.506;11.948;2024-01-15T03:49:27;20.92;;;12.20;;
7080;SDS011;3582;51.506;11.948;2024-01-15T03:51:53;19.27;;;12.90;;
7080;SDS011;3582;51.506;11.948;2024-01-15T03:54:19;21.33;;;13.13;;
7080;SDS011;3582;51.506;11.948;2024-01-15T03:56:45;17.63;;;12.27;;
7080;SDS011;3582;51.506;11.948;2024-01-15T03:59:10;18.03;;;11.97;;
7080;SDS011;3582;51.506;11.948;2024-01-15T04:01:36;19.27;;;12.67;;
7080;SDS011;3582;51.506;11.948;2024-01-15T04:04:02;18.93;;;12.00;;
7080;SDS011;3582;51.506;11.948;2024-01-15T04:06:28;14.48;;;9.80;;
7080;SDS011;3582;51.506;11.948;2024-01-15T04:08:54;18.80;;;11.27;;
7080;SDS011;3582;51.506;11.948;2024-01-15T04:11:20;17.37;;;11.53;;
7080;SDS011;3582;51.506;11.948;2024-01-15T04:13:47;16.70;;;10.23;;
7080;SDS011;3582;51.506;11.948;2024-01-15T04:16:13;21.63;;;12.37;;
7080;SDS011;3582;51.506;11.948;2024-01-15T04:18:39;21.03;;;11.47;;
7080;SDS011;3582;51.506;11.948;2024-01-15T04:21:05;18.50;;;11.13;;
7080;SDS011;3582;51.506;11.948;2024-01-15T04:23:32;18.35;;;10.85;;
7080;SDS011;3582;51.506;11.948;2024-01-15T04:25:58;14.50;;;9.40;;
7080;SDS011;3582;51.506;11.948;2024-01-15T04:28:24;15.20;;;10.20;;
7080;SDS011;3582;51.506;11.948;2024-01-15T04:30:49;31.43;;;11.43;;
7080;SDS011;3582;51.506;11.948;2024-01-15T04:33:15;11.40;;;7.97;;
7080;SDS011;3582;51.506;11.948;2024-01-15T04:35:41;16.60;;;10.67;;
7080;SDS011;3582;51.506;11.948;2024-01-15T04:38:07;13.40;;;9.97;;
7080;SDS011;3582;51.506;11.948;2024-01-15T04:40:33;17.10;;;10.67;;
7080;SDS011;3582;51.506;11.948;2024-01-15T04:42:59;16.33;;;10.80;;
7080;SDS011;3582;51.506;11.948;2024-01-15T04:45:25;16.27;;;9.20;;
7080;SDS011;3582;51.506;11.948;2024-01-15T04:47:53;14.43;;;10.20;;
7080;SDS011;3582;51.506;11.948;2024-01-15T04:50:20;17.77;;;9.57;;
7080;SDS011;3582;51.506;11.948;2024-01-15T04:52:47;12.32;;;8.93;;
7080;SDS011;3582;51.506;11.948;2024-01-15T04:55:13;14.17;;;9.13;;
7080;SDS011;3582;51.506;11.948;2024-01-15T04:57:39;12.03;;;8.07;;
7080;SDS011;3582;51.506;11.948;2024-01-15T05:00:05;12.57;;;7.70;;
7080;SDS011;3582;51.506;11.948;2024-01-15T05:02:31;11.98;;;7.97;;
7080;SDS011;3582;51.506;11.948;2024-01-15T05:04:57;15.50;;;9.73;;
7080;SDS011;3582;51.506;11.948;2024-01-15T05:07:23;13.00;;;8.53;;
7080;SDS011;3582;51.506;11.948;2024-01-15T05:09:49;13.60;;;8.17;;
7080;SDS011;3582;51.506;11.948;2024-01-15T05:12:14;13.17;;;7.40;;
7080;SDS011;3582;51.506;11.948;2024-01-15T05:14:40;9.97;;;6.30;;
7080;SDS011;3582;51.506;11.948;2024-01-15T05:17:06;11.57;;;7.00;;
7080;SDS011;3582;51.506;11.948;2024-01-15T05:19:32;11.37;;;7.73;;
7080;SDS011;3582;51.506;11.948;2024-01-15T05:21:58;11.47;;;6.90;;
7080;SDS011;3582;51.506;11.948;2024-01-15T05:24:24;14.93;;;8.43;;
7080;SDS011;3582;51.506;11.948;2024-01-15T05:26:51;18.83;;;9.10;;
7080;SDS011;3582;51.506;11.948;2024-01-15T05:29:17;8.95;;;7.63;;
7080;SDS011;3582;51.506;11.948;2024-01-15T05:31:43;11.23;;;7.40;;
7080;SDS011;3582;51.506;11.948;2024-01-15T05:34:09;10.80;;;7.30;;
7080;SDS011;3582;51.506;11.948;2024-01-15T05:36:35;12.83;;;9.30;;
7080;SDS011;3582;51.506;11.948;2024-01-15T05:39:01;10.80;;;7.57;;
7080;SDS011;3582;51.506;11.948;2024-01-15T05:41:28;20.70;;;8.75;;
7080;SDS011;3582;51.506;11.948;2024-01-15T05:43:53;11.37;;;8.10;;
7080;SDS011;3582;51.506;11.948;2024-01-15T05:46:19;14.23;;;7.63;;
7080;SDS011;3582;51.506;11.948;2024-01-15T05:48:45;11.90;;;9.03;;
7080;SDS011;3582;51.506;11.948;2024-01-15T05:51:12;12.30;;;7.50;;
7080;SDS011;3582;51.506;11.948;2024-01-15T05:53:38;10.93;;;8.05;;
7080;SDS011;3582;51.506;11.948;2024-01-15T05:56:06;11.93;;;8.40;;
7080;SDS011;3582;51.506;11.948;2024-01-15T05:58:32;13.53;;;8.13;;
7080;SDS011;3582;51.506;11.948;2024-01-15T06:00:58;9.27;;;6.77;;
7080;SDS011;3582;51.506;11.948;2024-01-15T06:03:24;10.45;;;8.45;;
7080;SDS011;3582;51.506;11.948;2024-01-15T06:05:50;13.63;;;8.73;;
7080;SDS011;3582;51.506;11.948;2024-01-15T06:08:16;10.27;;;8.03;;
7080;SDS011;3582;51.506;11.948;2024-01-15T06:10:42;10.20;;;6.30;;
7080;SDS011;3582;51.506;11.948;2024-01-15T06:13:08;10.67;;;7.70;;
7080;SDS011;3582;51.506;11.948;2024-01-15T06:15:34;14.18;;;7.43;;
7080;SDS011;3582;51.506;11.948;2024-01-15T06:18:00;13.43;;;7.23;;
7080;SDS011;3582;51.506;11.948;2024-01-15T06:20:26;16.23;;;8.10;;
7080;SDS011;3582;51.506;11.948;2024-01-15T06:22:52;15.97;;;8.47;;
7080;SDS011;3582;51.506;11.948;2024-01-15T06:25:18;10.80;;;7.60;;
7080;SDS011;3582;51.506;11.948;2024-01-15T06:27:43;9.67;;;6.63;;
7080;SDS011;3582;51.506;11.948;2024-01-15T06:30:10;9.20;;;7.03;;
7080;SDS011;3582;51.506;11.948;2024-01-15T06:32:36;18.48;;;8.48;;
7080;SDS011;3582;51.506;11.948;2024-01-15T06:35:02;10.40;;;7.33;;
7080;SDS011;3582;51.506;11.948;2024-01-15T06:37:28;13.37;;;8.50;;
7080;SDS011;3582;51.506;11.948;2024-01-15T06:39:54;12.53;;;7.47;;
7080;SDS011;3582;51.506;11.948;2024-01-15T06:42:20;12.60;;;7.80;;
7080;SDS011;3582;51.506;11.948;2024-01-15T06:44:46;10.70;;;7.50;;
7080;SDS011;3582;51.506;11.948;2024-01-15T06:47:12;11.30;;;7.60;;
7080;SDS011;3582;51.506;11.948;2024-01-15T06:49:39;9.85;;;7.07;;
7080;SDS011;3582;51.506;11.948;2024-01-15T06:52:05;11.63;;;8.63;;
7080;SDS011;3582;51.506;11.948;2024-01-15T06:54:31;13.57;;;9.02;;
7080;SDS011;3582;51.506;11.948;2024-01-15T06:56:57;12.03;;;9.17;;
7080;SDS011;3582;51.506;11.948;2024-01-15T06:59:23;14.00;;;8.67;;
7080;SDS011;3582;51.506;11.948;2024-01-15T07:01:49;10.15;;;7.55;;
7080;SDS011;3582;51.506;11.948;2024-01-15T07:04:15;13.70;;;9.23;;
7080;SDS011;3582;51.506;11.948;2024-01-15T07:06:41;10.60;;;7.68;;
7080;SDS011;3582;51.506;11.948;2024-01-15T07:09:07;12.03;;;8.13;;
7080;SDS011;3582;51.506;11.948;2024-01-15T07:11:34;13.73;;;8.68;;
7080;SDS011;3582;51.506;11.948;2024-01-15T07:14:00;9.77;;;7.23;;
7080;SDS011;3582;51.506;11.948;2024-01-15T07:16:25;8.50;;;6.93;;
7080;SDS011;3582;51.506;11.948;2024-01-15T07:18:51;13.17;;;8.27;;
7080;SDS011;3582;51.506;11.948;2024-01-15T07:21:17;12.93;;;8.10;;
7080;SDS011;3582;51.506;11.948;2024-01-15T07:23:44;10.05;;;8.68;;
7080;SDS011;3582;51.506;11.948;2024-01-15T07:26:10;11.20;;;8.03;;
7080;SDS011;3582;51.506;11.948;2024-01-15T07:28:36;24.30;;;9.33;;
7080;SDS011;3582;51.506;11.948;2024-01-15T07:31:02;21.57;;;13.37;;
7080;SDS011;3582;51.506;11.948;2024-01-15T07:33:28;10.35;;;8.02;;
7080;SDS011;3582;51.506;11.948;2024-01-15T07:35:54;12.17;;;8.73;;
7080;SDS011;3582;51.506;11.948;2024-01-15T07:38:20;19.03;;;8.50;;
7080;SDS011;3582;51.506;11.948;2024-01-15T07:40:47;13.98;;;8.73;;
7080;SDS011;3582;51.506;11.948;2024-01-15T07:43:14;10.25;;;7.50;;
7080;SDS011;3582;51.506;11.948;2024-01-15T07:45:40;13.48;;;9.70;;
7080;SDS011;3582;51.506;11.948;2024-01-15T07:48:06;15.27;;;9.63;;
7080;SDS011;3582;51.506;11.948;2024-01-15T07:50:32;11.82;;;8.70;;
7080;SDS011;3582;51.506;11.948;2024-01-15T07:52:58;13.73;;;9.37;;
7080;SDS011;3582;51.506;11.948;2024-01-15T07:55:24;14.40;;;8.07;;
7080;SDS011;3582;51.506;11.948;2024-01-15T07:57:49;12.37;;;8.87;;
7080;SDS011;3582;51.506;11.948;2024-01-15T08:00:17;20.40;;;8.95;;
7080;SDS011;3582;51.506;11.948;2024-01-15T08:02:43;11.33;;;8.03;;
7080;SDS011;3582;51.506;11.948;2024-01-15T08:05:09;17.27;;;8.30;;
7080;SDS011;3582;51.506;11.948;2024-01-15T08:07:35;8.30;;;7.40;;
7080;SDS011;3582;51.506;11.948;2024-01-15T08:10:01;15.13;;;7.97;;
7080;SDS011;3582;51.506;11.948;2024-01-15T08:12:28;13.02;;;8.15;;
7080;SDS011;3582;51.506;11.948;2024-01-15T08:14:54;11.60;;;8.10;;
7080;SDS011;3582;51.506;11.948;2024-01-15T08:17:20;12.47;;;10.07;;
7080;SDS011;3582;51.506;11.948;2024-01-15T08:19:46;8.87;;;6.93;;
7080;SDS011;3582;51.506;11.948;2024-01-15T08:22:11;13.57;;;7.70;;
7080;SDS011;3582;51.506;11.948;2024-01-15T08:24:37;12.57;;;8.37;;
7080;SDS011;3582;51.506;11.948;2024-01-15T08:27:03;14.30;;;9.67;;
7080;SDS011;3582;51.506;11.948;2024-01-15T08:29:29;14.02;;;9.45;;
7080;SDS011;3582;51.506;11.948;2024-01-15T08:31:58;9.05;;;7.43;;
7080;SDS011;3582;51.506;11.948;2024-01-15T08:34:24;10.90;;;8.10;;
7080;SDS011;3582;51.506;11.948;2024-01-15T08:36:50;11.40;;;7.07;;
7080;SDS011;3582;51.506;11.948;2024-01-15T08:39:16;13.37;;;8.87;;
7080;SDS011;3582;51.506;11.948;2024-01-15T08:41:44;9.77;;;7.22;;
7080;SDS011;3582;51.506;11.948;2024-01-15T08:44:11;14.32;;;7.15;;
7080;SDS011;3582;51.506;11.948;2024-01-15T08:46:37;10.53;;;8.17;;
7080;SDS011;3582;51.506;11.948;2024-01-15T08:49:03;11.73;;;6.60;;
7080;SDS011;3582;51.506;11.948;2024-01-15T08:51:29;10.17;;;7.87;;
7080;SDS011;3582;51.506;11.948;2024-01-15T08:53:58;11.40;;;8.50;;
7080;SDS011;3582;51.506;11.948;2024-01-15T08:56:24;10.25;;;6.90;;
7080;SDS011;3582;51.506;11.948;2024-01-15T08:58:50;15.70;;;8.20;;
7080;SDS011;3582;51.506;11.948;2024-01-15T09:01:16;12.33;;;8.17;;
7080;SDS011;3582;51.506;11.948;2024-01-15T09:03:42;10.27;;;7.43;;
7080;SDS011;3582;51.506;11.948;2024-01-15T09:06:08;10.30;;;7.50;;
7080;SDS011;3582;51.506;11.948;2024-01-15T09:08:34;10.10;;;7.28;;
7080;SDS011;3582;51.506;11.948;2024-01-15T09:11:01;13.15;;;8.18;;
7080;SDS011;3582;51.506;11.948;2024-01-15T09:13:28;11.25;;;7.82;;
7080;SDS011;3582;51.506;11.948;2024-01-15T09:15:54;12.18;;;7.53;;
7080;SDS011;3582;51.506;11.948;2024-01-15T09:18:20;10.60;;;7.30;;
7080;SDS011;3582;51.506;11.948;2024-01-15T09:20:46;12.93;;;8.70;;
7080;SDS011;3582;51.506;11.948;2024-01-15T09:23:11;10.57;;;7.70;;
7080;SDS011;3582;51.506;11.948;2024-01-15T09:25:37;9.80;;;6.50;;
7080;SDS011;3582;51.506;11.948;2024-01-15T09:28:03;13.07;;;8.17;;
7080;SDS011;3582;51.506;11.948;2024-01-15T09:30:29;11.07;;;7.00;;
7080;SDS011;3582;51.506;11.948;2024-01-15T09:32:55;10.70;;;7.50;;
7080;SDS011;3582;51.506;11.948;2024-01-15T09:35:22;9.95;;;6.70;;
7080;SDS011;3582;51.506;11.948;2024-01-15T09:37:48;10.17;;;8.53;;
7080;SDS011;3582;51.506;11.948;2024-01-15T09:40:14;8.30;;;6.67;;
7080;SDS011;3582;51.506;11.948;2024-01-15T09:42:40;10.73;;;6.65;;
7080;SDS011;3582;51.506;11.948;2024-01-15T09:45:07;9.45;;;6.53;;
7080;SDS011;3582;51.506;11.948;2024-01-15T09:47:34;12.13;;;7.15;;
7080;SDS011;3582;51.506;11.948;2024-01-15T09:50:00;12.38;;;7.43;;
7080;SDS011;3582;51.506;11.948;2024-01-15T09:52:28;10.35;;;5.90;;
7080;SDS011;3582;51.506;11.948;2024-01-15T09:54:55;9.95;;;7.53;;
7080;SDS011;3582;51.506;11.948;2024-01-15T09:57:20;7.75;;;6.78;;
7080;SDS011;3582;51.506;11.948;2024-01-15T09:59:46;12.95;;;7.80;;
7080;SDS011;3582;51.506;11.948;2024-01-15T10:02:12;9.70;;;6.03;;
7080;SDS011;3582;51.506;11.948;2024-01-15T10:04:42;12.10;;;7.35;;
7080;SDS011;3582;51.506;11.948;2024-01-15T10:07:08;10.05;;;7.85;;
7080;SDS011;3582;51.506;11.948;2024-01-15T10:09:34;8.87;;;6.40;;
7080;SDS011;3582;51.506;11.948;2024-01-15T10:12:00;10.73;;;6.33;;
7080;SDS011;3582;51.506;11.948;2024-01-15T10:14:26;12.60;;;8.30;;
7080;SDS011;3582;51.506;11.948;2024-01-15T10:16:52;14.67;;;5.80;;
7080;SDS011;3582;51.506;11.948;2024-01-15T10:19:18;9.07;;;6.72;;
7080;SDS011;3582;51.506;11.948;2024-01-15T10:21:44;9.43;;;7.20;;
7080;SDS011;3582;51.506;11.948;2024-01-15T10:24:11;12.52;;;7.05;;
7080;SDS011;3582;51.506;11.948;2024-01-15T10:26:37;10.33;;;8.00;;
7080;SDS011;3582;51.506;11.948;2024-01-15T10:29:03;9.70;;;8.00;;
7080;SDS011;3582;51.506;11.948;2024-01-15T10:31:29;8.47;;;6.40;;
7080;SDS011;3582;51.506;11.948;2024-01-15T10:34:09;11.57;;;6.75;;
7080;SDS011;3582;51.506;11.948;2024-01-15T10:36:36;9.82;;;8.07;;
7080;SDS011;3582;51.506;11.948;2024-01-15T10:39:04;12.13;;;7.45;;
7080;SDS011;3582;51.506;11.948;2024-01-15T10:41:32;10.18;;;6.13;;
7080;SDS011;3582;51.506;11.948;2024-01-15T10:43:58;6.27;;;5.23;;
7080;SDS011;3582;51.506;11.948;2024-01-15T10:46:24;12.97;;;6.90;;
7080;SDS011;3582;51.506;11.948;2024-01-15T10:48:51;9.65;;;6.47;;
7080;SDS011;3582;51.506;11.948;2024-01-15T10:51:17;10.00;;;6.07;;
7080;SDS011;3582;51.506;11.948;2024-01-15T10:53:43;7.68;;;6.03;;
7080;SDS011;3582;51.506;11.948;2024-01-15T10:56:10;12.20;;;7.57;;
7080;SDS011;3582;51.506;11.948;2024-01-15T10:58:37;6.45;;;5.78;;
7080;SDS011;3582;51.506;11.948;2024-01-15T11:01:05;14.57;;;6.68;;
7080;SDS011;3582;51.506;11.948;2024-01-15T11:03:31;7.28;;;5.55;;
7080;SDS011;3582;51.506;11.948;2024-01-15T11:05:57;9.75;;;5.88;;
7080;SDS011;3582;51.506;11.948;2024-01-15T11:08:24;9.63;;;6.60;;
7080;SDS011;3582;51.506;11.948;2024-01-15T11:10:50;8.75;;;6.07;;
7080;SDS011;3582;51.506;11.948;2024-01-15T11:16:08;11.63;;;5.80;;
7080;SDS011;3582;51.506;11.948;2024-01-15T11:23:44;9.32;;;6.45;;
7080;SDS011;3582;51.506;11.948;2024-01-15T11:26:33;9.65;;;6.32;;
7080;SDS011;3582;51.506;11.948;2024-01-15T11:29:00;10.93;;;5.93;;
7080;SDS011;3582;51.506;11.948;2024-01-15T11:34:09;5.57;;;4.97;;
7080;SDS011;3582;51.506;11.948;2024-01-15T11:39:39;8.55;;;6.40;;
7080;SDS011;3582;51.506;11.948;2024-01-15T11:42:07;8.65;;;6.03;;
7080;SDS011;3582;51.506;11.948;2024-01-15T11:44:33;8.40;;;6.33;;
7080;SDS011;3582;51.506;11.948;2024-01-15T11:47:03;12.10;;;7.33;;
7080;SDS011;3582;51.506;11.948;2024-01-15T11:52:01;10.70;;;7.25;;
7080;SDS011;3582;51.506;11.948;2024-01-15T11:54:28;11.23;;;8.45;;
7080;SDS011;3582;51.506;11.948;2024-01-15T11:56:57;15.30;;;7.93;;
7080;SDS011;3582;51.506;11.948;2024-01-15T11:59:24;9.38;;;6.82;;
7080;SDS011;3582;51.506;11.948;2024-01-15T12:01:50;9.47;;;6.80;;
7080;SDS011;3582;51.506;11.948;2024-01-15T12:04:16;8.17;;;5.80;;
7080;SDS011;3582;51.506;11.948;2024-01-15T12:06:44;8.70;;;6.55;;
7080;SDS011;3582;51.506;11.948;2024-01-15T12:09:10;12.35;;;8.23;;
7080;SDS011;3582;51.506;11.948;2024-01-15T12:11:36;12.23;;;7.30;;
7080;SDS011;3582;51.506;11.948;2024-01-15T12:14:04;13.57;;;7.18;;
7080;SDS011;3582;51.506;11.948;2024-01-15T12:16:30;10.80;;;7.20;;
7080;SDS011;3582;51.506;11.948;2024-01-15T12:18:56;12.47;;;8.20;;
7080;SDS011;3582;51.506;11.948;2024-01-15T12:21:22;11.00;;;7.13;;
7080;SDS011;3582;51.506;11.948;2024-01-15T12:23:48;10.40;;;6.63;;
7080;SDS011;3582;51.506;11.948;2024-01-15T12:26:14;8.05;;;6.90;;
7080;SDS011;3582;51.506;11.948;2024-01-15T12:28:40;10.20;;;6.33;;
7080;SDS011;3582;51.506;11.948;2024-01-15T12:31:06;8.03;;;6.20;;
7080;SDS011;3582;51.506;11.948;2024-01-15T12:33:33;7.47;;;5.67;;
7080;SDS011;3582;51.506;11.948;2024-01-15T12:35:59;10.40;;;6.13;;
7080;SDS011;3582;51.506;11.948;2024-01-15T12:38:24;12.87;;;6.57;;
7080;SDS011;3582;51.506;11.948;2024-01-15T12:40:51;7.00;;;4.97;;
7080;SDS011;3582;51.506;11.948;2024-01-15T12:43:17;12.33;;;6.43;;
7080;SDS011;3582;51.506;11.948;2024-01-15T12:45:43;6.93;;;6.13;;
7080;SDS011;3582;51.506;11.948;2024-01-15T12:48:09;7.20;;;6.23;;
7080;SDS011;3582;51.506;11.948;2024-01-15T12:50:35;5.85;;;5.18;;
7080;SDS011;3582;51.506;11.948;2024-01-15T12:53:01;5.80;;;4.70;;
7080;SDS011;3582;51.506;11.948;2024-01-15T12:55:28;7.07;;;5.97;;
7080;SDS011;3582;51.506;11.948;2024-01-15T12:57:53;7.80;;;4.93;;
7080;SDS011;3582;51.506;11.948;2024-01-15T13:00:20;11.20;;;4.50;;
7080;SDS011;3582;51.506;11.948;2024-01-15T13:02:46;8.77;;;4.40;;
7080;SDS011;3582;51.506;11.948;2024-01-15T13:05:12;10.68;;;6.13;;
7080;SDS011;3582;51.506;11.948;2024-01-15T13:07:38;4.13;;;3.72;;
7080;SDS011;3582;51.506;11.948;2024-01-15T13:10:04;6.88;;;4.10;;
7080;SDS011;3582;51.506;11.948;2024-01-15T13:12:30;6.75;;;3.90;;
7080;SDS011;3582;51.506;11.948;2024-01-15T13:14:58;5.00;;;4.13;;
7080;SDS011;3582;51.506;11.948;2024-01-15T13:17:24;4.85;;;3.22;;
7080;SDS011;3582;51.506;11.948;2024-01-15T13:19:49;5.80;;;3.83;;
7080;SDS011;3582;51.506;11.948;2024-01-15T13:22:15;8.00;;;4.43;;
7080;SDS011;3582;51.506;11.948;2024-01-15T13:24:41;6.50;;;4.70;;
7080;SDS011;3582;51.506;11.948;2024-01-15T13:27:08;6.28;;;4.90;;
7080;SDS011;3582;51.506;11.948;2024-01-15T13:29:34;6.00;;;4.23;;
7080;SDS011;3582;51.506;11.948;2024-01-15T13:32:00;8.60;;;4.77;;
7080;SDS011;3582;51.506;11.948;2024-01-15T13:34:26;11.38;;;5.22;;
7080;SDS011;3582;51.506;11.948;2024-01-15T13:36:52;12.47;;;4.97;;
7080;SDS011;3582;51.506;11.948;2024-01-15T13:39:18;5.22;;;4.72;;
7080;SDS011;3582;51.506;11.948;2024-01-15T13:41:48;10.50;;;5.32;;
7080;SDS011;3582;51.506;11.948;2024-01-15T13:44:14;7.30;;;4.25;;
7080;SDS011;3582;51.506;11.948;2024-01-15T13:46:40;8.55;;;5.15;;
7080;SDS011;3582;51.506;11.948;2024-01-15T13:49:06;10.02;;;3.72;;
7080;SDS011;3582;51.506;11.948;2024-01-15T13:51:34;5.55;;;3.50;;
7080;SDS011;3582;51.506;11.948;2024-01-15T13:54:01;6.70;;;4.53;;
7080;SDS011;3582;51.506;11.948;2024-01-15T13:56:29;6.60;;;3.95;;
7080;SDS011;3582;51.506;11.948;2024-01-15T13:58:57;6.32;;;5.55;;
7080;SDS011;3582;51.506;11.948;2024-01-15T14:01:23;5.57;;;4.50;;
7080;SDS011;3582;51.506;11.948;2024-01-15T14:03:49;6.18;;;3.55;;
7080;SDS011;3582;51.506;11.948;2024-01-15T14:06:15;3.63;;;3.17;;
7080;SDS011;3582;51.506;11.948;2024-01-15T14:08:41;4.70;;;3.73;;
7080;SDS011;3582;51.506;11.948;2024-01-15T14:11:07;8.40;;;3.70;;
7080;SDS011;3582;51.506;11.948;2024-01-15T14:13:34;4.72;;;3.97;;
7080;SDS011;3582;51.506;11.948;2024-01-15T14:16:00;7.43;;;3.87;;
7080;SDS011;3582;51.506;11.948;2024-01-15T14:18:26;8.57;;;4.20;;
7080;SDS011;3582;51.506;11.948;2024-01-15T14:20:52;5.93;;;2.80;;
7080;SDS011;3582;51.506;11.948;2024-01-15T14:23:18;16.17;;;4.73;;
7080;SDS011;3582;51.506;11.948;2024-01-15T14:25:44;8.27;;;3.78;;
7080;SDS011;3582;51.506;11.948;2024-01-15T14:28:10;8.53;;;3.40;;
7080;SDS011;3582;51.506;11.948;2024-01-15T14:30:36;4.63;;;3.37;;
7080;SDS011;3582;51.506;11.948;2024-01-15T14:33:02;4.60;;;3.40;;
7080;SDS011;3582;51.506;11.948;2024-01-15T14:35:28;3.23;;;2.93;;
7080;SDS011;3582;51.506;11.948;2024-01-15T14:37:54;4.60;;;3.00;;
7080;SDS011;3582;51.506;11.948;2024-01-15T14:40:20;6.50;;;3.63;;
7080;SDS011;3582;51.506;11.948;2024-01-15T14:42:46;5.53;;;3.30;;
7080;SDS011;3582;51.506;11.948;2024-01-15T14:45:12;6.93;;;2.90;;
7080;SDS011;3582;51.506;11.948;2024-01-15T14:47:38;4.10;;;3.20;;
7080;SDS011;3582;51.506;11.948;2024-01-15T14:50:07;4.65;;;3.40;;
7080;SDS011;3582;51.506;11.948;2024-01-15T14:52:33;3.47;;;3.05;;
7080;SDS011;3582;51.506;11.948;2024-01-15T14:54:59;5.80;;;3.75;;
7080;SDS011;3582;51.506;11.948;2024-01-15T14:57:25;3.80;;;3.45;;